Disclaimer

Please do not use the information listed here in-flight or in-navigation, as they are not provided to us by the airports but are provided by volunteers, so they might be outdated.

Search


Regions


Airport information page

Radio informations:
Melbourne Center - 121.2 MHz
Common traffic adv. frequency (CTAF) - 126.7 MHz

Airport informations:
Latitude: 30° 35' 54.00" S
Longitude: 138° 25' 33.00" E
Elevation: 856 feet - 261 meters
Operating hours: N/A
Operating agency: Civil government, landing fees and diplomatic clearance may be required
Timezone: UTC+9:30(+10:30DT)
Fuel: Jet A1, without icing nhibitor.

100/130 MIL Spec, low lead, aviation gasoline (BLUE)

Runway information:
02/20 - 3999 x 59 feet< - >1219 x 18 meters
11/29 - 5610 x 98 feet< - >1710 x 30 meters

Recent METARs:
YLEC 141600Z AUTO 19011KT //// // ////// 19/07 Q1018
YLEC 141600Z AUTO 19011KT //// // ////// 19/07 Q1018
YLEC 141700Z AUTO 19009KT //// // ////// 18/07 Q1018

Airport on the map: